sensor_id;sensor_type;location;lat;lon;timestamp;P1;durP1;ratioP1;P2;durP2;ratioP2
76459;SDS011;65299;46.084;18.762;2022-12-01T00:02:47;29.80;;;16.67;;
76459;SDS011;65299;46.084;18.762;2022-12-01T00:05:58;34.88;;;18.00;;
76459;SDS011;65299;46.084;18.762;2022-12-01T00:08:59;34.37;;;17.43;;
76459;SDS011;65299;46.084;18.762;2022-12-01T00:12:18;32.30;;;17.15;;
76459;SDS011;65299;46.084;18.762;2022-12-01T00:15:19;36.03;;;17.40;;
76459;SDS011;65299;46.084;18.762;2022-12-01T00:18:19;31.80;;;17.88;;
76459;SDS011;65299;46.084;18.762;2022-12-01T00:21:20;32.67;;;17.90;;
76459;SDS011;65299;46.084;18.762;2022-12-01T00:24:23;34.97;;;16.67;;
76459;SDS011;65299;46.084;18.762;2022-12-01T00:27:24;33.10;;;16.75;;
76459;SDS011;65299;46.084;18.762;2022-12-01T00:30:24;31.17;;;16.60;;
76459;SDS011;65299;46.084;18.762;2022-12-01T00:33:25;33.73;;;17.13;;
76459;SDS011;65299;46.084;18.762;2022-12-01T00:36:25;33.83;;;17.67;;
76459;SDS011;65299;46.084;18.762;2022-12-01T00:39:25;32.33;;;17.52;;
76459;SDS011;65299;46.084;18.762;2022-12-01T00:42:26;35.50;;;17.97;;
76459;SDS011;65299;46.084;18.762;2022-12-01T00:45:27;33.80;;;16.67;;
76459;SDS011;65299;46.084;18.762;2022-12-01T00:48:27;31.90;;;17.07;;
76459;SDS011;65299;46.084;18.762;2022-12-01T00:51:28;32.63;;;16.33;;
76459;SDS011;65299;46.084;18.762;2022-12-01T00:54:28;30.10;;;16.33;;
76459;SDS011;65299;46.084;18.762;2022-12-01T00:57:31;30.50;;;16.10;;
76459;SDS011;65299;46.084;18.762;2022-12-01T01:00:31;34.88;;;16.85;;
76459;SDS011;65299;46.084;18.762;2022-12-01T01:03:32;31.33;;;16.60;;
76459;SDS011;65299;46.084;18.762;2022-12-01T01:06:33;29.70;;;16.38;;
76459;SDS011;65299;46.084;18.762;2022-12-01T01:09:33;35.83;;;15.67;;
76459;SDS011;65299;46.084;18.762;2022-12-01T01:12:33;32.23;;;16.53;;
76459;SDS011;65299;46.084;18.762;2022-12-01T01:15:34;34.37;;;17.00;;
76459;SDS011;65299;46.084;18.762;2022-12-01T01:18:35;35.75;;;18.13;;
76459;SDS011;65299;46.084;18.762;2022-12-01T01:21:35;33.07;;;16.27;;
76459;SDS011;65299;46.084;18.762;2022-12-01T01:24:35;36.80;;;17.37;;
76459;SDS011;65299;46.084;18.762;2022-12-01T01:27:36;30.20;;;16.07;;
76459;SDS011;65299;46.084;18.762;2022-12-01T01:30:40;29.95;;;16.20;;
76459;SDS011;65299;46.084;18.762;2022-12-01T01:33:40;33.20;;;16.87;;
76459;SDS011;65299;46.084;18.762;2022-12-01T01:36:41;33.67;;;16.50;;
76459;SDS011;65299;46.084;18.762;2022-12-01T01:39:41;29.27;;;14.93;;
76459;SDS011;65299;46.084;18.762;2022-12-01T01:42:42;31.47;;;15.43;;
76459;SDS011;65299;46.084;18.762;2022-12-01T01:45:42;29.07;;;14.97;;
76459;SDS011;65299;46.084;18.762;2022-12-01T01:52:13;32.30;;;16.45;;
76459;SDS011;65299;46.084;18.762;2022-12-01T01:55:14;29.30;;;16.00;;
76459;SDS011;65299;46.084;18.762;2022-12-01T01:58:15;27.87;;;15.63;;
76459;SDS011;65299;46.084;18.762;2022-12-01T02:01:16;33.20;;;16.57;;
76459;SDS011;65299;46.084;18.762;2022-12-01T02:04:16;32.77;;;16.30;;
76459;SDS011;65299;46.084;18.762;2022-12-01T02:07:19;30.30;;;16.45;;
76459;SDS011;65299;46.084;18.762;2022-12-01T02:10:20;31.93;;;15.50;;
76459;SDS011;65299;46.084;18.762;2022-12-01T02:13:39;33.38;;;17.42;;
76459;SDS011;65299;46.084;18.762;2022-12-01T02:17:44;32.75;;;16.20;;
76459;SDS011;65299;46.084;18.762;2022-12-01T02:34:43;25.80;;;14.73;;
76459;SDS011;65299;46.084;18.762;2022-12-01T02:44:23;28.95;;;15.05;;
76459;SDS011;65299;46.084;18.762;2022-12-01T02:47:31;29.40;;;15.93;;
76459;SDS011;65299;46.084;18.762;2022-12-01T02:50:34;32.10;;;15.60;;
76459;SDS011;65299;46.084;18.762;2022-12-01T02:53:36;28.00;;;14.37;;
76459;SDS011;65299;46.084;18.762;2022-12-01T02:56:37;30.08;;;15.65;;
76459;SDS011;65299;46.084;18.762;2022-12-01T02:59:38;31.90;;;17.70;;
76459;SDS011;65299;46.084;18.762;2022-12-01T03:02:47;31.20;;;16.08;;
76459;SDS011;65299;46.084;18.762;2022-12-01T03:19:28;30.42;;;16.52;;
76459;SDS011;65299;46.084;18.762;2022-12-01T03:22:43;34.35;;;17.02;;
76459;SDS011;65299;46.084;18.762;2022-12-01T03:25:49;34.83;;;16.85;;
76459;SDS011;65299;46.084;18.762;2022-12-01T03:28:54;29.07;;;15.77;;
76459;SDS011;65299;46.084;18.762;2022-12-01T03:32:03;31.50;;;16.50;;
76459;SDS011;65299;46.084;18.762;2022-12-01T03:35:13;30.75;;;16.60;;
76459;SDS011;65299;46.084;18.762;2022-12-01T03:38:29;31.98;;;15.65;;
76459;SDS011;65299;46.084;18.762;2022-12-01T03:41:34;30.90;;;15.18;;
76459;SDS011;65299;46.084;18.762;2022-12-01T03:44:40;32.47;;;15.17;;
76459;SDS011;65299;46.084;18.762;2022-12-01T03:47:54;32.00;;;15.68;;
76459;SDS011;65299;46.084;18.762;2022-12-01T03:51:15;29.87;;;15.67;;
76459;SDS011;65299;46.084;18.762;2022-12-01T03:54:30;27.75;;;15.15;;
76459;SDS011;65299;46.084;18.762;2022-12-01T03:57:47;29.55;;;15.00;;
76459;SDS011;65299;46.084;18.762;2022-12-01T04:00:53;30.48;;;15.52;;
76459;SDS011;65299;46.084;18.762;2022-12-01T04:03:59;30.00;;;15.63;;
76459;SDS011;65299;46.084;18.762;2022-12-01T04:07:03;28.07;;;15.17;;
76459;SDS011;65299;46.084;18.762;2022-12-01T04:10:04;30.80;;;15.70;;
76459;SDS011;65299;46.084;18.762;2022-12-01T04:13:06;29.75;;;15.25;;
76459;SDS011;65299;46.084;18.762;2022-12-01T04:16:11;34.28;;;15.82;;
76459;SDS011;65299;46.084;18.762;2022-12-01T04:19:11;29.17;;;16.20;;
76459;SDS011;65299;46.084;18.762;2022-12-01T04:22:11;34.57;;;16.23;;
76459;SDS011;65299;46.084;18.762;2022-12-01T04:25:12;38.83;;;15.90;;
76459;SDS011;65299;46.084;18.762;2022-12-01T04:28:12;31.27;;;16.60;;
76459;SDS011;65299;46.084;18.762;2022-12-01T04:31:13;29.67;;;15.87;;
76459;SDS011;65299;46.084;18.762;2022-12-01T04:34:13;35.80;;;17.80;;
76459;SDS011;65299;46.084;18.762;2022-12-01T04:37:13;34.30;;;17.13;;
76459;SDS011;65299;46.084;18.762;2022-12-01T04:40:14;40.67;;;19.52;;
76459;SDS011;65299;46.084;18.762;2022-12-01T04:43:15;38.20;;;19.40;;
76459;SDS011;65299;46.084;18.762;2022-12-01T04:46:15;48.40;;;22.37;;
76459;SDS011;65299;46.084;18.762;2022-12-01T04:49:16;55.83;;;24.98;;
76459;SDS011;65299;46.084;18.762;2022-12-01T04:52:16;46.00;;;21.67;;
76459;SDS011;65299;46.084;18.762;2022-12-01T04:55:17;45.77;;;21.17;;
76459;SDS011;65299;46.084;18.762;2022-12-01T04:58:17;40.33;;;20.13;;
76459;SDS011;65299;46.084;18.762;2022-12-01T05:01:18;41.87;;;22.07;;
76459;SDS011;65299;46.084;18.762;2022-12-01T05:04:19;50.23;;;25.53;;
76459;SDS011;65299;46.084;18.762;2022-12-01T05:07:19;50.83;;;24.50;;
76459;SDS011;65299;46.084;18.762;2022-12-01T05:10:20;43.70;;;23.55;;
76459;SDS011;65299;46.084;18.762;2022-12-01T05:13:21;43.60;;;21.37;;
76459;SDS011;65299;46.084;18.762;2022-12-01T05:16:26;39.30;;;22.10;;
76459;SDS011;65299;46.084;18.762;2022-12-01T05:19:28;41.92;;;21.73;;
76459;SDS011;65299;46.084;18.762;2022-12-01T05:22:46;36.43;;;19.90;;
76459;SDS011;65299;46.084;18.762;2022-12-01T05:25:47;36.03;;;20.05;;
76459;SDS011;65299;46.084;18.762;2022-12-01T05:28:47;34.47;;;18.43;;
76459;SDS011;65299;46.084;18.762;2022-12-01T05:31:47;33.73;;;18.07;;
76459;SDS011;65299;46.084;18.762;2022-12-01T05:34:48;41.57;;;19.73;;
76459;SDS011;65299;46.084;18.762;2022-12-01T05:37:48;35.28;;;18.08;;
76459;SDS011;65299;46.084;18.762;2022-12-01T05:40:52;37.40;;;18.07;;
76459;SDS011;65299;46.084;18.762;2022-12-01T05:43:54;31.10;;;17.23;;
76459;SDS011;65299;46.084;18.762;2022-12-01T05:46:54;35.53;;;19.37;;
76459;SDS011;65299;46.084;18.762;2022-12-01T05:49:55;36.83;;;19.07;;
76459;SDS011;65299;46.084;18.762;2022-12-01T05:52:55;38.67;;;19.87;;
76459;SDS011;65299;46.084;18.762;2022-12-01T05:55:56;44.92;;;20.60;;
76459;SDS011;65299;46.084;18.762;2022-12-01T05:58:56;31.60;;;16.07;;
76459;SDS011;65299;46.084;18.762;2022-12-01T06:01:56;45.87;;;20.83;;
76459;SDS011;65299;46.084;18.762;2022-12-01T06:04:57;38.80;;;18.27;;
76459;SDS011;65299;46.084;18.762;2022-12-01T06:07:57;52.25;;;23.05;;
76459;SDS011;65299;46.084;18.762;2022-12-01T06:10:58;43.97;;;22.50;;
76459;SDS011;65299;46.084;18.762;2022-12-01T06:13:58;46.00;;;20.70;;
76459;SDS011;65299;46.084;18.762;2022-12-01T06:16:59;40.80;;;20.73;;
76459;SDS011;65299;46.084;18.762;2022-12-01T06:19:59;44.40;;;22.77;;
76459;SDS011;65299;46.084;18.762;2022-12-01T06:23:00;34.23;;;17.67;;
76459;SDS011;65299;46.084;18.762;2022-12-01T06:26:00;36.38;;;19.27;;
76459;SDS011;65299;46.084;18.762;2022-12-01T06:29:01;32.27;;;16.47;;
76459;SDS011;65299;46.084;18.762;2022-12-01T06:32:01;40.87;;;20.50;;
76459;SDS011;65299;46.084;18.762;2022-12-01T06:35:03;35.67;;;18.20;;
76459;SDS011;65299;46.084;18.762;2022-12-01T06:38:03;57.80;;;24.35;;
76459;SDS011;65299;46.084;18.762;2022-12-01T06:41:04;38.23;;;18.87;;
76459;SDS011;65299;46.084;18.762;2022-12-01T06:44:05;35.22;;;17.10;;
76459;SDS011;65299;46.084;18.762;2022-12-01T06:47:05;34.63;;;15.70;;
76459;SDS011;65299;46.084;18.762;2022-12-01T06:50:07;36.13;;;18.75;;
76459;SDS011;65299;46.084;18.762;2022-12-01T06:53:09;36.45;;;17.80;;
76459;SDS011;65299;46.084;18.762;2022-12-01T06:56:10;35.43;;;17.23;;
76459;SDS011;65299;46.084;18.762;2022-12-01T06:59:11;36.67;;;18.20;;
76459;SDS011;65299;46.084;18.762;2022-12-01T07:02:11;32.83;;;16.40;;
76459;SDS011;65299;46.084;18.762;2022-12-01T07:05:12;33.83;;;17.17;;
76459;SDS011;65299;46.084;18.762;2022-12-01T07:08:12;30.20;;;13.87;;
76459;SDS011;65299;46.084;18.762;2022-12-01T07:11:13;40.77;;;19.33;;
76459;SDS011;65299;46.084;18.762;2022-12-01T07:14:17;32.10;;;16.55;;
76459;SDS011;65299;46.084;18.762;2022-12-01T07:17:21;33.38;;;18.38;;
76459;SDS011;65299;46.084;18.762;2022-12-01T07:20:22;33.90;;;17.17;;
76459;SDS011;65299;46.084;18.762;2022-12-01T07:23:23;34.40;;;17.30;;
76459;SDS011;65299;46.084;18.762;2022-12-01T07:26:23;34.60;;;16.70;;
76459;SDS011;65299;46.084;18.762;2022-12-01T07:29:23;39.53;;;19.37;;
76459;SDS011;65299;46.084;18.762;2022-12-01T07:32:24;40.30;;;19.30;;
76459;SDS011;65299;46.084;18.762;2022-12-01T07:35:24;36.83;;;18.50;;
76459;SDS011;65299;46.084;18.762;2022-12-01T07:38:28;37.53;;;17.40;;
76459;SDS011;65299;46.084;18.762;2022-12-01T07:41:32;33.47;;;16.38;;
76459;SDS011;65299;46.084;18.762;2022-12-01T07:44:33;33.10;;;16.40;;
76459;SDS011;65299;46.084;18.762;2022-12-01T07:47:34;35.80;;;16.85;;
76459;SDS011;65299;46.084;18.762;2022-12-01T07:50:34;38.03;;;18.80;;
76459;SDS011;65299;46.084;18.762;2022-12-01T07:53:35;38.63;;;19.73;;
76459;SDS011;65299;46.084;18.762;2022-12-01T07:56:35;33.70;;;16.57;;
76459;SDS011;65299;46.084;18.762;2022-12-01T07:59:36;28.20;;;13.98;;
76459;SDS011;65299;46.084;18.762;2022-12-01T08:02:36;34.60;;;17.90;;
76459;SDS011;65299;46.084;18.762;2022-12-01T08:05:37;35.67;;;17.47;;
76459;SDS011;65299;46.084;18.762;2022-12-01T08:08:38;35.70;;;16.63;;
76459;SDS011;65299;46.084;18.762;2022-12-01T08:11:39;32.13;;;17.43;;
76459;SDS011;65299;46.084;18.762;2022-12-01T08:14:40;35.03;;;16.00;;
76459;SDS011;65299;46.084;18.762;2022-12-01T08:17:40;36.87;;;17.83;;
76459;SDS011;65299;46.084;18.762;2022-12-01T08:20:41;38.87;;;19.50;;
76459;SDS011;65299;46.084;18.762;2022-12-01T08:23:41;36.30;;;17.33;;
76459;SDS011;65299;46.084;18.762;2022-12-01T08:26:42;38.92;;;18.83;;
76459;SDS011;65299;46.084;18.762;2022-12-01T08:29:42;27.47;;;14.80;;
76459;SDS011;65299;46.084;18.762;2022-12-01T08:32:43;33.70;;;14.90;;
76459;SDS011;65299;46.084;18.762;2022-12-01T08:35:43;33.07;;;15.33;;
76459;SDS011;65299;46.084;18.762;2022-12-01T08:38:44;34.33;;;18.77;;
76459;SDS011;65299;46.084;18.762;2022-12-01T08:41:47;24.75;;;11.50;;
76459;SDS011;65299;46.084;18.762;2022-12-01T09:04:41;22.67;;;11.35;;
76459;SDS011;65299;46.084;18.762;2022-12-01T09:07:41;31.60;;;12.43;;
76459;SDS011;65299;46.084;18.762;2022-12-01T09:10:49;28.97;;;14.90;;
76459;SDS011;65299;46.084;18.762;2022-12-01T09:13:51;26.55;;;13.25;;
76459;SDS011;65299;46.084;18.762;2022-12-01T09:16:51;27.70;;;12.83;;
76459;SDS011;65299;46.084;18.762;2022-12-01T09:19:51;26.57;;;13.00;;
76459;SDS011;65299;46.084;18.762;2022-12-01T09:22:52;30.33;;;12.73;;
76459;SDS011;65299;46.084;18.762;2022-12-01T09:25:52;28.77;;;14.90;;
76459;SDS011;65299;46.084;18.762;2022-12-01T09:28:54;23.80;;;12.87;;
76459;SDS011;65299;46.084;18.762;2022-12-01T09:31:56;26.48;;;13.80;;
76459;SDS011;65299;46.084;18.762;2022-12-01T09:34:57;31.33;;;15.40;;
76459;SDS011;65299;46.084;18.762;2022-12-01T09:37:58;26.90;;;12.87;;
76459;SDS011;65299;46.084;18.762;2022-12-01T09:40:59;28.93;;;14.20;;
76459;SDS011;65299;46.084;18.762;2022-12-01T09:47:23;24.42;;;11.10;;
76459;SDS011;65299;46.084;18.762;2022-12-01T09:50:28;25.37;;;11.10;;
76459;SDS011;65299;46.084;18.762;2022-12-01T09:53:30;27.67;;;13.52;;
76459;SDS011;65299;46.084;18.762;2022-12-01T09:56:31;28.43;;;14.03;;
76459;SDS011;65299;46.084;18.762;2022-12-01T09:59:39;24.90;;;12.02;;
76459;SDS011;65299;46.084;18.762;2022-12-01T10:06:04;27.42;;;13.45;;
76459;SDS011;65299;46.084;18.762;2022-12-01T10:12:34;27.43;;;12.90;;
76459;SDS011;65299;46.084;18.762;2022-12-01T10:18:57;27.52;;;13.57;;
76459;SDS011;65299;46.084;18.762;2022-12-01T10:25:30;26.63;;;12.93;;
76459;SDS011;65299;46.084;18.762;2022-12-01T10:28:56;28.93;;;13.70;;
76459;SDS011;65299;46.084;18.762;2022-12-01T10:32:15;27.27;;;12.68;;
76459;SDS011;65299;46.084;18.762;2022-12-01T10:35:19;29.70;;;14.30;;
76459;SDS011;65299;46.084;18.762;2022-12-01T10:38:25;29.90;;;15.52;;
76459;SDS011;65299;46.084;18.762;2022-12-01T10:41:31;33.67;;;15.95;;
76459;SDS011;65299;46.084;18.762;2022-12-01T10:44:34;31.20;;;14.70;;
76459;SDS011;65299;46.084;18.762;2022-12-01T10:47:35;24.65;;;12.05;;
76459;SDS011;65299;46.084;18.762;2022-12-01T10:50:35;24.80;;;11.23;;
76459;SDS011;65299;46.084;18.762;2022-12-01T10:53:36;31.23;;;15.57;;
76459;SDS011;65299;46.084;18.762;2022-12-01T10:56:38;26.83;;;12.73;;
76459;SDS011;65299;46.084;18.762;2022-12-01T11:02:46;24.45;;;12.30;;
76459;SDS011;65299;46.084;18.762;2022-12-01T11:05:51;26.90;;;13.55;;
76459;SDS011;65299;46.084;18.762;2022-12-01T11:08:58;27.73;;;15.17;;
76459;SDS011;65299;46.084;18.762;2022-12-01T11:12:01;28.05;;;14.10;;
76459;SDS011;65299;46.084;18.762;2022-12-01T11:15:03;27.25;;;14.45;;
76459;SDS011;65299;46.084;18.762;2022-12-01T11:18:06;29.98;;;15.77;;
76459;SDS011;65299;46.084;18.762;2022-12-01T11:21:25;27.73;;;13.27;;
76459;SDS011;65299;46.084;18.762;2022-12-01T11:24:43;29.53;;;12.70;;
76459;SDS011;65299;46.084;18.762;2022-12-01T11:27:54;29.00;;;14.15;;
76459;SDS011;65299;46.084;18.762;2022-12-01T11:31:03;31.85;;;15.60;;
76459;SDS011;65299;46.084;18.762;2022-12-01T11:34:05;27.67;;;13.15;;
76459;SDS011;65299;46.084;18.762;2022-12-01T11:37:22;30.55;;;14.52;;
76459;SDS011;65299;46.084;18.762;2022-12-01T11:40:29;30.00;;;14.57;;
76459;SDS011;65299;46.084;18.762;2022-12-01T11:43:35;29.42;;;13.93;;
76459;SDS011;65299;46.084;18.762;2022-12-01T11:46:38;35.05;;;16.27;;
76459;SDS011;65299;46.084;18.762;2022-12-01T11:49:44;30.73;;;14.52;;
76459;SDS011;65299;46.084;18.762;2022-12-01T11:52:47;27.55;;;13.82;;
76459;SDS011;65299;46.084;18.762;2022-12-01T11:55:48;34.23;;;17.43;;
76459;SDS011;65299;46.084;18.762;2022-12-01T11:58:49;33.30;;;15.00;;
76459;SDS011;65299;46.084;18.762;2022-12-01T12:02:05;34.63;;;16.60;;
76459;SDS011;65299;46.084;18.762;2022-12-01T12:11:54;28.42;;;13.73;;
76459;SDS011;65299;46.084;18.762;2022-12-01T12:21:47;27.88;;;13.02;;
76459;SDS011;65299;46.084;18.762;2022-12-01T12:31:34;36.45;;;16.40;;
76459;SDS011;65299;46.084;18.762;2022-12-01T12:34:47;30.48;;;15.10;;
76459;SDS011;65299;46.084;18.762;2022-12-01T12:38:28;27.88;;;14.05;;
76459;SDS011;65299;46.084;18.762;2022-12-01T12:41:34;31.37;;;16.30;;
76459;SDS011;65299;46.084;18.762;2022-12-01T12:54:21;27.13;;;13.73;;
76459;SDS011;65299;46.084;18.762;2022-12-01T12:57:36;25.07;;;13.40;;
76459;SDS011;65299;46.084;18.762;2022-12-01T13:00:42;27.13;;;13.80;;
76459;SDS011;65299;46.084;18.762;2022-12-01T13:03:58;25.67;;;12.25;;
76459;SDS011;65299;46.084;18.762;2022-12-01T13:07:04;26.27;;;13.13;;
76459;SDS011;65299;46.084;18.762;2022-12-01T13:10:25;21.42;;;11.35;;
76459;SDS011;65299;46.084;18.762;2022-12-01T13:17:17;27.35;;;13.45;;
76459;SDS011;65299;46.084;18.762;2022-12-01T13:20:21;29.13;;;14.73;;
76459;SDS011;65299;46.084;18.762;2022-12-01T13:23:26;29.48;;;15.88;;
76459;SDS011;65299;46.084;18.762;2022-12-01T13:26:27;29.60;;;14.77;;
76459;SDS011;65299;46.084;18.762;2022-12-01T13:29:32;27.33;;;14.10;;
76459;SDS011;65299;46.084;18.762;2022-12-01T13:32:35;25.88;;;13.38;;
76459;SDS011;65299;46.084;18.762;2022-12-01T13:35:39;24.92;;;12.05;;
76459;SDS011;65299;46.084;18.762;2022-12-01T13:38:39;24.40;;;12.43;;
76459;SDS011;65299;46.084;18.762;2022-12-01T13:41:40;26.80;;;13.10;;
76459;SDS011;65299;46.084;18.762;2022-12-01T13:44:44;28.75;;;14.65;;
76459;SDS011;65299;46.084;18.762;2022-12-01T13:47:52;30.58;;;14.93;;
76459;SDS011;65299;46.084;18.762;2022-12-01T13:50:58;29.95;;;14.65;;
76459;SDS011;65299;46.084;18.762;2022-12-01T13:54:02;27.75;;;14.85;;
76459;SDS011;65299;46.084;18.762;2022-12-01T13:57:04;35.40;;;16.83;;
76459;SDS011;65299;46.084;18.762;2022-12-01T14:00:20;36.08;;;16.50;;
76459;SDS011;65299;46.084;18.762;2022-12-01T14:09:31;33.50;;;15.37;;
76459;SDS011;65299;46.084;18.762;2022-12-01T14:12:35;28.98;;;14.32;;
76459;SDS011;65299;46.084;18.762;2022-12-01T14:15:40;36.40;;;18.27;;
76459;SDS011;65299;46.084;18.762;2022-12-01T14:18:42;37.73;;;17.43;;
76459;SDS011;65299;46.084;18.762;2022-12-01T14:21:50;39.63;;;20.13;;
76459;SDS011;65299;46.084;18.762;2022-12-01T14:24:51;36.63;;;17.70;;
76459;SDS011;65299;46.084;18.762;2022-12-01T14:27:53;33.27;;;16.77;;
76459;SDS011;65299;46.084;18.762;2022-12-01T14:30:58;36.65;;;17.75;;
76459;SDS011;65299;46.084;18.762;2022-12-01T14:40:06;31.98;;;16.42;;
76459;SDS011;65299;46.084;18.762;2022-12-01T14:43:11;33.42;;;16.92;;
76459;SDS011;65299;46.084;18.762;2022-12-01T14:49:55;40.65;;;20.45;;
76459;SDS011;65299;46.084;18.762;2022-12-01T14:53:05;84.88;;;37.15;;
76459;SDS011;65299;46.084;18.762;2022-12-01T14:56:19;78.85;;;34.80;;
76459;SDS011;65299;46.084;18.762;2022-12-01T14:59:22;62.95;;;28.42;;
76459;SDS011;65299;46.084;18.762;2022-12-01T15:02:25;68.27;;;30.90;;
76459;SDS011;65299;46.084;18.762;2022-12-01T15:05:26;64.30;;;29.23;;
76459;SDS011;65299;46.084;18.762;2022-12-01T15:08:30;56.28;;;26.58;;
76459;SDS011;65299;46.084;18.762;2022-12-01T15:11:31;58.40;;;27.10;;
76459;SDS011;65299;46.084;18.762;2022-12-01T15:14:33;53.20;;;26.27;;
76459;SDS011;65299;46.084;18.762;2022-12-01T15:17:36;55.95;;;27.80;;
76459;SDS011;65299;46.084;18.762;2022-12-01T15:20:37;62.07;;;29.33;;
76459;SDS011;65299;46.084;18.762;2022-12-01T15:23:57;60.35;;;28.80;;
76459;SDS011;65299;46.084;18.762;2022-12-01T15:27:01;72.18;;;35.08;;
76459;SDS011;65299;46.084;18.762;2022-12-01T15:30:01;68.33;;;32.90;;
76459;SDS011;65299;46.084;18.762;2022-12-01T15:33:04;44.15;;;21.88;;
76459;SDS011;65299;46.084;18.762;2022-12-01T15:36:05;47.50;;;24.80;;
76459;SDS011;65299;46.084;18.762;2022-12-01T15:39:10;57.47;;;29.25;;
76459;SDS011;65299;46.084;18.762;2022-12-01T15:42:33;54.00;;;26.63;;
76459;SDS011;65299;46.084;18.762;2022-12-01T15:45:40;48.30;;;24.30;;
76459;SDS011;65299;46.084;18.762;2022-12-01T15:48:44;49.90;;;23.42;;
76459;SDS011;65299;46.084;18.762;2022-12-01T15:51:48;45.00;;;22.40;;
76459;SDS011;65299;46.084;18.762;2022-12-01T15:54:49;43.60;;;22.17;;
76459;SDS011;65299;46.084;18.762;2022-12-01T15:57:50;45.33;;;23.05;;
76459;SDS011;65299;46.084;18.762;2022-12-01T16:01:04;43.73;;;23.73;;
76459;SDS011;65299;46.084;18.762;2022-12-01T16:04:18;44.38;;;22.15;;
76459;SDS011;65299;46.084;18.762;2022-12-01T16:07:21;47.95;;;24.02;;
76459;SDS011;65299;46.084;18.762;2022-12-01T16:10:32;49.20;;;23.40;;
76459;SDS011;65299;46.084;18.762;2022-12-01T16:13:40;77.22;;;31.48;;
76459;SDS011;65299;46.084;18.762;2022-12-01T16:16:44;66.20;;;32.47;;
76459;SDS011;65299;46.084;18.762;2022-12-01T16:19:46;270.27;;;102.32;;
76459;SDS011;65299;46.084;18.762;2022-12-01T16:22:47;109.23;;;48.47;;
76459;SDS011;65299;46.084;18.762;2022-12-01T16:25:51;92.43;;;41.55;;
76459;SDS011;65299;46.084;18.762;2022-12-01T16:28:52;104.00;;;47.23;;
76459;SDS011;65299;46.084;18.762;2022-12-01T16:31:54;127.38;;;56.05;;
76459;SDS011;65299;46.084;18.762;2022-12-01T16:34:55;130.02;;;57.97;;
76459;SDS011;65299;46.084;18.762;2022-12-01T16:37:56;106.10;;;47.70;;
76459;SDS011;65299;46.084;18.762;2022-12-01T16:40:57;112.85;;;53.63;;
76459;SDS011;65299;46.084;18.762;2022-12-01T16:43:59;94.93;;;45.40;;
76459;SDS011;65299;46.084;18.762;2022-12-01T16:47:00;91.57;;;42.65;;
76459;SDS011;65299;46.084;18.762;2022-12-01T16:50:01;88.55;;;41.08;;
76459;SDS011;65299;46.084;18.762;2022-12-01T16:53:02;92.97;;;43.97;;
76459;SDS011;65299;46.084;18.762;2022-12-01T16:56:02;96.60;;;47.75;;
76459;SDS011;65299;46.084;18.762;2022-12-01T16:59:03;91.37;;;45.20;;
76459;SDS011;65299;46.084;18.762;2022-12-01T17:02:03;70.15;;;36.08;;
76459;SDS011;65299;46.084;18.762;2022-12-01T17:05:04;74.73;;;36.33;;
76459;SDS011;65299;46.084;18.762;2022-12-01T17:08:04;69.90;;;35.90;;
76459;SDS011;65299;46.084;18.762;2022-12-01T17:11:05;65.40;;;32.75;;
76459;SDS011;65299;46.084;18.762;2022-12-01T17:14:06;75.53;;;38.27;;
76459;SDS011;65299;46.084;18.762;2022-12-01T17:17:06;80.50;;;39.72;;
76459;SDS011;65299;46.084;18.762;2022-12-01T17:20:07;71.17;;;34.70;;
76459;SDS011;65299;46.084;18.762;2022-12-01T17:23:08;71.20;;;36.38;;
76459;SDS011;65299;46.084;18.762;2022-12-01T17:26:12;68.33;;;32.03;;
76459;SDS011;65299;46.084;18.762;2022-12-01T17:29:15;63.28;;;29.80;;
76459;SDS011;65299;46.084;18.762;2022-12-01T17:32:15;63.57;;;30.83;;
76459;SDS011;65299;46.084;18.762;2022-12-01T17:35:16;61.03;;;30.53;;
76459;SDS011;65299;46.084;18.762;2022-12-01T17:38:16;56.78;;;27.10;;
76459;SDS011;65299;46.084;18.762;2022-12-01T17:41:19;54.90;;;26.83;;
76459;SDS011;65299;46.084;18.762;2022-12-01T17:44:24;58.75;;;28.38;;
76459;SDS011;65299;46.084;18.762;2022-12-01T17:47:24;58.70;;;29.00;;
76459;SDS011;65299;46.084;18.762;2022-12-01T17:50:26;60.97;;;28.73;;
76459;SDS011;65299;46.084;18.762;2022-12-01T17:53:26;60.10;;;28.40;;
76459;SDS011;65299;46.084;18.762;2022-12-01T17:56:27;88.22;;;43.28;;
76459;SDS011;65299;46.084;18.762;2022-12-01T17:59:27;75.83;;;36.63;;
76459;SDS011;65299;46.084;18.762;2022-12-01T18:02:28;68.37;;;34.20;;
76459;SDS011;65299;46.084;18.762;2022-12-01T18:05:28;69.87;;;34.43;;
76459;SDS011;65299;46.084;18.762;2022-12-01T18:08:29;63.97;;;31.00;;
76459;SDS011;65299;46.084;18.762;2022-12-01T18:11:30;64.90;;;29.97;;
76459;SDS011;65299;46.084;18.762;2022-12-01T18:14:31;60.85;;;28.73;;
76459;SDS011;65299;46.084;18.762;2022-12-01T18:17:33;71.10;;;32.30;;
76459;SDS011;65299;46.084;18.762;2022-12-01T18:20:34;68.77;;;32.70;;
76459;SDS011;65299;46.084;18.762;2022-12-01T18:23:39;72.78;;;34.90;;
76459;SDS011;65299;46.084;18.762;2022-12-01T18:26:40;73.55;;;36.72;;
76459;SDS011;65299;46.084;18.762;2022-12-01T18:29:41;60.40;;;30.53;;
76459;SDS011;65299;46.084;18.762;2022-12-01T18:32:41;64.80;;;31.83;;
76459;SDS011;65299;46.084;18.762;2022-12-01T18:35:42;58.73;;;30.53;;
76459;SDS011;65299;46.084;18.762;2022-12-01T18:38:43;62.58;;;30.35;;
76459;SDS011;65299;46.084;18.762;2022-12-01T18:41:46;59.00;;;26.97;;
76459;SDS011;65299;46.084;18.762;2022-12-01T18:44:46;57.05;;;28.08;;
76459;SDS011;65299;46.084;18.762;2022-12-01T18:47:47;56.63;;;27.43;;
76459;SDS011;65299;46.084;18.762;2022-12-01T18:50:47;58.20;;;28.93;;
76459;SDS011;65299;46.084;18.762;2022-12-01T18:53:51;57.28;;;27.45;;
76459;SDS011;65299;46.084;18.762;2022-12-01T18:56:53;55.35;;;27.40;;
76459;SDS011;65299;46.084;18.762;2022-12-01T18:59:55;53.47;;;28.13;;
76459;SDS011;65299;46.084;18.762;2022-12-01T19:02:55;86.75;;;40.80;;
76459;SDS011;65299;46.084;18.762;2022-12-01T19:05:56;65.40;;;31.03;;
76459;SDS011;65299;46.084;18.762;2022-12-01T19:08:58;62.80;;;29.15;;
76459;SDS011;65299;46.084;18.762;2022-12-01T19:11:59;54.45;;;27.05;;
76459;SDS011;65299;46.084;18.762;2022-12-01T19:15:00;54.80;;;26.70;;
76459;SDS011;65299;46.084;18.762;2022-12-01T19:18:00;56.83;;;25.93;;
76459;SDS011;65299;46.084;18.762;2022-12-01T19:21:01;52.63;;;25.57;;
76459;SDS011;65299;46.084;18.762;2022-12-01T19:24:03;51.03;;;25.27;;
76459;SDS011;65299;46.084;18.762;2022-12-01T19:27:03;54.20;;;27.25;;
76459;SDS011;65299;46.084;18.762;2022-12-01T19:30:04;54.17;;;26.70;;
76459;SDS011;65299;46.084;18.762;2022-12-01T19:33:05;55.10;;;27.67;;
76459;SDS011;65299;46.084;18.762;2022-12-01T19:36:10;52.70;;;26.67;;
76459;SDS011;65299;46.084;18.762;2022-12-01T19:39:13;54.53;;;28.48;;
76459;SDS011;65299;46.084;18.762;2022-12-01T19:42:13;59.00;;;30.87;;
76459;SDS011;65299;46.084;18.762;2022-12-01T19:45:13;69.03;;;34.03;;